Time;durP1;ratioP1;P1;durP2;ratioP2;P2;SDS_P1;SDS_P2;PMS_P1;PMS_P2;Temp;Humidity;BMP_temperature;BMP_pressure;BME280_temperature;BME280_humidity;BME280_pressure;Samples;Min_cycle;Max_cycle;Signal;HPM_P1;HPM_P2
2021/12/06 00:02:08;;;;;;;209.40;81.67;;;4.90;75.70;;;;;;5036143;28;20357;-87
2021/12/06 00:04:38;;;;;;;216.80;85.10;;;4.90;75.50;;;;;;5035888;28;20033;-86
2021/12/06 00:07:09;;;;;;;241.93;93.37;;;4.90;75.50;;;;;;5034763;28;20041;-89
2021/12/06 00:09:35;;;;;;;233.03;87.80;;;4.90;75.70;;;;;;5035687;28;20035;-88
2021/12/06 00:12:03;;;;;;;224.17;89.20;;;4.90;75.70;;;;;;5037647;28;20030;-88
2021/12/06 00:14:33;;;;;;;227.43;94.10;;;4.90;75.70;;;;;;5036312;28;20026;-88
2021/12/06 00:17:10;;;;;;;229.30;88.27;;;4.90;75.70;;;;;;5035879;28;20021;-88
2021/12/06 00:19:37;;;;;;;205.90;83.37;;;4.90;75.70;;;;;;5036319;28;20024;-88
2021/12/06 00:22:07;;;;;;;198.57;82.60;;;4.90;75.70;;;;;;5036187;28;20071;-89
2021/12/06 00:24:34;;;;;;;182.57;79.97;;;4.90;75.70;;;;;;5036110;28;20064;-89
2021/12/06 00:27:00;;;;;;;195.80;82.30;;;4.90;75.60;;;;;;5035899;28;20021;-86
2021/12/06 00:29:26;;;;;;;205.75;83.72;;;4.80;75.60;;;;;;5036825;28;20513;-88
2021/12/06 00:31:52;;;;;;;;;;;4.90;75.60;;;;;;5030567;28;20032;-89
2021/12/06 00:34:19;;;;;;;180.80;73.87;;;4.90;75.60;;;;;;5030903;28;19913;-89
2021/12/06 00:37:15;;;;;;;193.73;76.63;;;4.90;75.20;;;;;;5034099;28;20482;-88
2021/12/06 00:39:41;;;;;;;195.97;79.00;;;4.80;75.30;;;;;;5033387;28;20026;-88
2021/12/06 00:42:07;;;;;;;195.48;82.72;;;4.80;75.30;;;;;;5036168;28;20485;-88
2021/12/06 00:44:32;;;;;;;;;;;4.80;75.40;;;;;;5033497;28;20025;-87
2021/12/06 00:46:58;;;;;;;190.37;75.70;;;4.80;75.40;;;;;;5034872;28;19963;-87
2021/12/06 00:49:24;;;;;;;;;;;4.80;75.10;;;;;;5034904;28;20445;-87
2021/12/06 00:51:49;;;;;;;180.23;71.33;;;4.80;75.30;;;;;;5034425;28;19913;-86
2021/12/06 00:54:15;;;;;;;;;;;4.70;75.10;;;;;;5035637;28;20534;-88
2021/12/06 00:56:41;;;;;;;174.90;72.53;;;4.70;75.20;;;;;;5036241;28;19913;-89
2021/12/06 00:59:07;;;;;;;190.38;74.55;;;4.70;75.10;;;;;;5036098;28;20050;-86
2021/12/06 01:01:35;;;;;;;192.43;77.07;;;4.60;75.20;;;;;;5035487;28;20071;-88
2021/12/06 01:04:01;;;;;;;195.53;76.43;;;4.60;75.30;;;;;;5036933;28;20040;-88
2021/12/06 01:06:27;;;;;;;181.83;75.67;;;4.60;75.40;;;;;;5035040;28;20520;-88
2021/12/06 01:08:53;;;;;;;186.15;72.45;;;4.60;75.40;;;;;;5035285;28;20033;-89
2021/12/06 01:11:19;;;;;;;190.60;75.22;;;4.60;75.40;;;;;;5033509;28;20433;-88
2021/12/06 01:13:44;;;;;;;169.40;70.68;;;4.60;75.40;;;;;;5027568;28;20040;-88
2021/12/06 01:16:10;;;;;;;;;;;4.60;75.40;;;;;;5035630;28;20476;-88
2021/12/06 01:18:36;;;;;;;175.93;68.30;;;4.60;75.40;;;;;;5034073;28;19909;-87
2021/12/06 01:21:19;;;;;;;179.57;69.77;;;4.60;75.00;;;;;;5034497;28;20375;-88
2021/12/06 01:23:56;;;;;;;186.07;72.40;;;4.60;75.10;;;;;;5029847;28;20076;-87
2021/12/06 01:39:41;;;;;;;196.80;77.72;;;4.50;75.20;;;;;;5035487;28;20075;-88
2021/12/06 01:42:08;;;;;;;182.38;78.60;;;4.40;75.20;;;;;;5034393;28;20018;-88
2021/12/06 01:44:45;;;;;;;212.50;83.47;;;4.40;75.30;;;;;;5034422;28;20037;-87
2021/12/06 01:47:16;;;;;;;;;;;4.40;75.30;;;;;;5035567;28;20033;-87
2021/12/06 01:49:48;;;;;;;199.60;77.00;;;4.40;75.30;;;;;;5034068;28;19991;-87
2021/12/06 01:52:22;;;;;;;221.87;84.47;;;4.50;75.00;;;;;;5034491;28;20029;-87
2021/12/06 01:54:48;;;;;;;218.37;84.07;;;4.40;75.10;;;;;;5029406;28;20064;-88
2021/12/06 01:57:14;;;;;;;221.03;82.70;;;4.40;75.10;;;;;;5034080;28;20028;-89
2021/12/06 01:59:40;;;;;;;218.80;83.40;;;4.40;75.20;;;;;;5032733;28;20128;-88
2021/12/06 02:02:08;;;;;;;201.87;81.57;;;4.40;75.20;;;;;;5032595;28;20032;-88
2021/12/06 02:04:36;;;;;;;198.07;79.30;;;4.40;75.20;;;;;;5033900;28;20021;-88
2021/12/06 02:07:03;;;;;;;203.70;79.03;;;4.40;75.20;;;;;;5032354;28;20060;-88
2021/12/06 02:09:29;;;;;;;198.10;80.00;;;4.40;75.20;;;;;;5034187;28;20419;-88
2021/12/06 02:11:57;;;;;;;;;;;4.40;75.30;;;;;;5030207;28;20112;-88
2021/12/06 02:17:06;;;;;;;214.50;84.03;;;4.40;74.90;;;;;;5034354;28;20029;-88
2021/12/06 02:19:36;;;;;;;214.83;82.93;;;4.40;75.00;;;;;;5029677;28;20048;-88
2021/12/06 02:22:04;;;;;;;218.37;84.13;;;4.40;75.10;;;;;;5033215;28;20049;-88
2021/12/06 02:24:31;;;;;;;234.20;83.80;;;4.40;75.10;;;;;;5034055;28;20021;-88
2021/12/06 02:26:58;;;;;;;221.20;82.33;;;4.30;75.20;;;;;;5032639;28;20032;-89
2021/12/06 02:29:24;;;;;;;209.70;83.93;;;4.30;75.20;;;;;;5029235;28;20059;-88
2021/12/06 02:31:50;;;;;;;212.05;82.47;;;4.30;75.20;;;;;;5027205;28;20091;-89
2021/12/06 02:34:16;;;;;;;;;;;4.30;75.30;;;;;;5033335;28;20029;-90
2021/12/06 02:36:42;;;;;;;197.87;77.23;;;4.30;75.30;;;;;;5029898;28;19940;-87
2021/12/06 02:39:10;;;;;;;232.10;82.77;;;4.30;74.90;;;;;;5032756;28;20382;-88
2021/12/06 02:41:36;;;;;;;226.60;80.20;;;4.30;75.10;;;;;;5029704;28;20018;-88
2021/12/06 02:44:02;;;;;;;;;;;4.30;75.20;;;;;;5030234;28;20160;-87
2021/12/06 02:46:28;;;;;;;228.33;80.17;;;4.30;75.20;;;;;;5027840;28;19917;-87
2021/12/06 02:48:54;;;;;;;267.40;91.70;;;4.30;74.90;;;;;;5033271;28;20025;-87
2021/12/06 02:51:20;;;;;;;223.17;84.20;;;4.30;75.00;;;;;;5032758;28;20673;-88
2021/12/06 02:53:47;;;;;;;226.97;84.87;;;4.30;75.10;;;;;;5033267;28;20482;-88
2021/12/06 02:56:31;;;;;;;222.10;84.40;;;4.20;75.30;;;;;;5033098;28;20056;-89
2021/12/06 02:59:05;;;;;;;219.53;84.77;;;4.30;75.30;;;;;;5033682;28;20030;-88
2021/12/06 03:01:44;;;;;;;224.90;83.83;;;4.30;75.40;;;;;;5029572;28;20022;-87
2021/12/06 03:04:10;;;;;;;216.37;79.93;;;4.30;75.40;;;;;;5033385;28;20031;-88
2021/12/06 03:06:36;;;;;;;217.63;85.87;;;4.20;75.40;;;;;;5033420;28;20108;-88
2021/12/06 03:09:11;;;;;;;226.60;87.37;;;4.20;75.40;;;;;;5033179;28;20029;-87
2021/12/06 03:11:47;;;;;;;223.47;82.17;;;4.20;75.50;;;;;;5017884;28;20437;-87
2021/12/06 03:14:20;;;;;;;237.80;88.05;;;4.20;75.50;;;;;;5024074;28;20372;-88
2021/12/06 03:16:47;;;;;;;237.80;83.73;;;4.20;75.40;;;;;;5027355;28;20033;-88
2021/12/06 03:19:13;;;;;;;237.87;86.13;;;4.20;75.40;;;;;;5025447;28;20053;-86
2021/12/06 03:21:41;;;;;;;233.48;84.93;;;4.20;75.40;;;;;;5017279;28;20048;-88
2021/12/06 03:24:08;;;;;;;241.40;86.20;;;4.20;75.50;;;;;;5032259;28;20545;-88
2021/12/06 03:26:34;;;;;;;232.60;87.27;;;4.20;75.50;;;;;;5031479;28;20048;-87
2021/12/06 03:29:01;;;;;;;233.47;87.00;;;4.30;75.50;;;;;;5027381;28;20363;-87
2021/12/06 03:31:27;;;;;;;246.63;88.20;;;4.30;75.60;;;;;;5028020;28;20047;-87
2021/12/06 03:33:54;;;;;;;;;;;4.20;75.50;;;;;;5033281;28;20037;-88
2021/12/06 03:36:22;;;;;;;238.90;80.73;;;4.30;75.60;;;;;;5018599;28;19913;-87
2021/12/06 03:38:49;;;;;;;245.73;85.93;;;4.30;75.20;;;;;;5022846;28;20026;-88
2021/12/06 03:41:17;;;;;;;232.10;85.40;;;4.20;75.40;;;;;;5031455;28;20032;-87
2021/12/06 03:43:44;;;;;;;246.30;84.43;;;4.20;75.50;;;;;;5032905;28;20497;-87
2021/12/06 03:46:12;;;;;;;251.83;87.07;;;4.20;75.60;;;;;;5032311;28;20029;-88
2021/12/06 03:48:38;;;;;;;234.10;84.10;;;4.20;75.60;;;;;;5032918;28;20036;-88
2021/12/06 03:51:04;;;;;;;225.55;80.03;;;4.30;75.70;;;;;;5032950;28;20116;-88
2021/12/06 03:53:29;;;;;;;;;;;4.20;75.70;;;;;;5032958;28;20470;-88
2021/12/06 03:55:56;;;;;;;233.23;77.70;;;4.30;75.70;;;;;;5034690;28;19970;-88
2021/12/06 03:58:22;;;;;;;214.17;76.40;;;4.30;75.30;;;;;;5035123;28;20391;-88
2021/12/06 04:00:48;;;;;;;219.45;76.93;;;4.30;75.40;;;;;;5036851;28;20048;-87
2021/12/06 04:03:15;;;;;;;224.00;76.78;;;4.30;75.50;;;;;;5035870;28;20053;-88
2021/12/06 04:05:40;;;;;;;231.30;77.77;;;4.30;75.50;;;;;;5031885;28;20030;-88
2021/12/06 04:08:06;;;;;;;227.27;74.80;;;4.30;75.60;;;;;;5030638;28;20029;-88
2021/12/06 04:10:32;;;;;;;197.48;70.40;;;4.30;75.60;;;;;;5035568;28;20398;-87
2021/12/06 04:12:59;;;;;;;213.25;75.25;;;4.30;75.60;;;;;;5035373;28;20025;-87
2021/12/06 04:15:28;;;;;;;201.93;73.37;;;4.30;75.60;;;;;;5035780;28;20028;-88
2021/12/06 04:17:54;;;;;;;211.93;74.60;;;4.30;75.60;;;;;;5036380;28;20025;-88
2021/12/06 04:20:19;;;;;;;227.32;72.88;;;4.30;75.70;;;;;;5035938;28;20032;-88
2021/12/06 04:22:45;;;;;;;;;;;4.30;75.70;;;;;;5036619;28;20017;-87
2021/12/06 04:25:14;;;;;;;209.80;72.27;;;4.30;75.70;;;;;;5035845;28;20095;-87
2021/12/06 04:27:40;;;;;;;224.70;78.63;;;4.30;75.40;;;;;;5025547;28;20074;-88
2021/12/06 04:30:09;;;;;;;226.40;81.37;;;4.30;75.50;;;;;;5036071;28;20029;-88
2021/12/06 04:32:34;;;;;;;246.30;83.00;;;4.30;75.60;;;;;;5034271;28;20021;-88
2021/12/06 04:35:00;;;;;;;232.00;82.93;;;4.30;75.60;;;;;;5030268;28;20041;-89
2021/12/06 04:37:26;;;;;;;;;;;4.30;75.60;;;;;;5033079;28;20471;-87
2021/12/06 04:39:51;;;;;;;208.63;72.33;;;4.30;75.70;;;;;;5034942;28;19916;-88
2021/12/06 04:42:20;;;;;;;242.85;78.78;;;4.30;75.40;;;;;;5034860;28;20112;-88
2021/12/06 04:44:48;;;;;;;222.73;75.90;;;4.30;75.50;;;;;;5034766;28;20039;-89
2021/12/06 04:47:14;;;;;;;199.10;72.00;;;4.30;75.60;;;;;;5035441;28;20021;-88
2021/12/06 04:49:40;;;;;;;225.07;77.50;;;4.30;75.70;;;;;;5035650;28;20108;-88
2021/12/06 04:52:10;;;;;;;216.43;74.55;;;4.30;75.80;;;;;;5035519;28;20109;-88
2021/12/06 04:54:39;;;;;;;225.80;76.17;;;4.30;75.80;;;;;;5035042;28;20017;-89
2021/12/06 04:57:16;;;;;;;204.70;71.93;;;4.30;75.80;;;;;;5035312;28;20030;-88
2021/12/06 04:59:49;;;;;;;211.07;74.30;;;4.30;75.80;;;;;;5032967;28;20506;-87
2021/12/06 05:02:22;;;;;;;223.20;75.83;;;4.30;75.80;;;;;;5032502;28;20025;-86
2021/12/06 05:04:50;;;;;;;215.37;78.20;;;4.30;75.80;;;;;;5034876;28;20025;-87
2021/12/06 05:07:23;;;;;;;213.57;75.30;;;4.30;75.80;;;;;;5033733;28;20091;-88
2021/12/06 05:09:50;;;;;;;217.60;71.03;;;4.30;75.80;;;;;;5034972;28;20079;-88
2021/12/06 05:12:18;;;;;;;195.13;72.30;;;4.30;75.80;;;;;;5034919;28;20432;-87
2021/12/06 05:14:44;;;;;;;207.80;72.73;;;4.30;75.90;;;;;;5034860;28;20029;-88
2021/12/06 05:17:11;;;;;;;229.68;77.22;;;4.30;75.90;;;;;;5034624;28;20121;-88
2021/12/06 05:19:37;;;;;;;208.30;68.10;;;4.30;75.90;;;;;;5035517;28;20025;-88
2021/12/06 05:22:04;;;;;;;221.60;74.05;;;4.30;75.90;;;;;;5034627;28;20017;-88
2021/12/06 05:24:30;;;;;;;220.47;74.17;;;4.30;76.00;;;;;;5033550;28;20025;-88
2021/12/06 05:26:56;;;;;;;217.45;70.30;;;4.30;76.00;;;;;;5025485;28;20029;-88
2021/12/06 05:29:25;;;;;;;;;;;4.30;76.00;;;;;;5034550;28;20029;-88
2021/12/06 05:31:56;;;;;;;192.87;65.60;;;4.30;76.00;;;;;;5033393;28;20025;-88
2021/12/06 05:34:30;;;;;;;206.33;68.93;;;4.30;75.70;;;;;;5033220;28;20022;-87
2021/12/06 05:36:56;;;;;;;210.10;70.50;;;4.30;75.80;;;;;;5034458;28;20378;-88
2021/12/06 05:39:22;;;;;;;204.05;70.22;;;4.30;75.90;;;;;;5034183;28;20028;-87
2021/12/06 05:41:48;;;;;;;196.10;66.22;;;4.30;75.90;;;;;;5033968;28;20100;-86
2021/12/06 05:44:13;;;;;;;203.57;72.03;;;4.30;75.90;;;;;;5033748;28;20382;-88
2021/12/06 05:46:39;;;;;;;;;;;4.30;75.90;;;;;;5035136;28;20488;-89
2021/12/06 05:49:04;;;;;;;200.00;66.87;;;4.30;76.00;;;;;;5029261;28;19932;-88
2021/12/06 05:51:30;;;;;;;205.50;69.30;;;4.30;75.70;;;;;;5034799;28;20025;-88
2021/12/06 05:53:56;;;;;;;204.85;68.50;;;4.30;75.80;;;;;;5034295;28;20029;-87
2021/12/06 05:56:24;;;;;;;;;;;4.30;75.80;;;;;;5034981;28;20021;-89
2021/12/06 05:58:50;;;;;;;193.07;64.73;;;4.40;75.80;;;;;;5034799;28;20054;-88
2021/12/06 06:01:18;;;;;;;208.07;67.25;;;4.40;75.50;;;;;;5035971;28;20029;-89
2021/12/06 06:03:44;;;;;;;203.37;70.57;;;4.30;75.70;;;;;;5035108;28;20025;-88
2021/12/06 06:06:09;;;;;;;214.23;74.38;;;4.30;75.70;;;;;;5034676;28;20029;-88
2021/12/06 06:08:35;;;;;;;;;;;4.30;75.80;;;;;;5033543;28;20025;-88
2021/12/06 06:11:01;;;;;;;213.47;70.30;;;4.30;75.80;;;;;;5016302;28;19906;-87
2021/12/06 06:13:26;;;;;;;204.20;67.05;;;4.30;75.50;;;;;;5033433;28;20037;-89
2021/12/06 06:15:54;;;;;;;203.18;68.57;;;4.30;75.70;;;;;;5034187;28;20030;-87
2021/12/06 06:18:25;;;;;;;209.50;69.73;;;4.30;75.80;;;;;;5033215;28;20029;-88
2021/12/06 06:20:53;;;;;;;191.43;67.83;;;4.30;75.90;;;;;;5033652;28;20032;-88
2021/12/06 06:23:19;;;;;;;192.60;68.07;;;4.30;76.00;;;;;;5036984;28;20038;-88
2021/12/06 06:25:45;;;;;;;193.57;70.30;;;4.30;76.00;;;;;;5029434;28;20041;-88
2021/12/06 06:28:11;;;;;;;;;;;4.30;76.00;;;;;;5031542;28;20486;-87
2021/12/06 06:30:40;;;;;;;190.13;65.70;;;4.40;76.00;;;;;;5033817;28;19916;-88
2021/12/06 06:33:06;;;;;;;202.47;71.17;;;4.40;75.60;;;;;;5026706;28;20029;-88
2021/12/06 06:35:32;;;;;;;209.13;70.97;;;4.30;75.70;;;;;;5034275;28;20570;-89
2021/12/06 06:37:58;;;;;;;;;;;4.30;75.80;;;;;;5033769;28;20068;-88
2021/12/06 06:40:24;;;;;;;201.30;67.70;;;4.30;75.90;;;;;;5033534;28;19934;-87
2021/12/06 06:42:50;;;;;;;;;;;4.40;75.60;;;;;;5033676;28;20048;-88
2021/12/06 06:45:19;;;;;;;195.27;65.20;;;4.30;75.70;;;;;;5034806;28;19909;-88
2021/12/06 06:47:45;;;;;;;194.23;67.37;;;4.30;75.50;;;;;;5034192;28;20104;-87
2021/12/06 06:50:12;;;;;;;193.17;70.43;;;4.30;75.70;;;;;;5033803;28;20036;-89
2021/12/06 06:52:38;;;;;;;207.40;72.17;;;4.30;75.80;;;;;;5017196;28;20094;-87
2021/12/06 06:55:05;;;;;;;216.13;73.57;;;4.30;75.90;;;;;;5028903;28;20028;-88
2021/12/06 06:57:31;;;;;;;218.70;74.67;;;4.30;75.90;;;;;;5033623;28;20028;-89
2021/12/06 06:59:57;;;;;;;;;;;4.40;75.90;;;;;;5027311;28;20038;-89
2021/12/06 07:02:23;;;;;;;190.57;64.17;;;4.40;76.00;;;;;;5026574;28;19909;-89
2021/12/06 07:04:49;;;;;;;213.65;67.82;;;4.40;75.60;;;;;;5033097;28;20486;-88
2021/12/06 07:07:14;;;;;;;;;;;4.40;75.70;;;;;;5033162;28;20022;-88
2021/12/06 07:09:42;;;;;;;205.70;67.40;;;4.40;75.80;;;;;;5033825;28;19935;-89
2021/12/06 07:12:14;;;;;;;212.00;72.00;;;4.40;75.60;;;;;;5033538;28;20037;-84
2021/12/06 07:14:42;;;;;;;219.77;72.57;;;4.40;75.70;;;;;;5032215;28;20045;-86
2021/12/06 07:17:07;;;;;;;204.80;72.67;;;4.40;75.80;;;;;;5033693;28;20033;-87
2021/12/06 07:19:33;;;;;;;216.60;77.13;;;4.30;75.80;;;;;;5032792;28;20026;-88
2021/12/06 07:21:59;;;;;;;;;;;4.40;75.90;;;;;;5033037;28;20494;-88
2021/12/06 07:24:25;;;;;;;206.90;69.13;;;4.40;75.90;;;;;;5032445;28;19913;-88
2021/12/06 07:26:51;;;;;;;203.40;69.73;;;4.40;75.60;;;;;;5032427;28;20030;-88
2021/12/06 07:29:16;;;;;;;210.55;72.75;;;4.40;75.80;;;;;;5027687;28;20074;-87
2021/12/06 07:31:42;;;;;;;210.75;73.22;;;4.40;75.80;;;;;;5026826;28;20026;-89
2021/12/06 07:34:08;;;;;;;;;;;4.40;75.90;;;;;;5031606;28;20040;-88
2021/12/06 07:36:33;;;;;;;176.73;62.03;;;4.40;75.80;;;;;;5034028;28;19909;-87
2021/12/06 07:38:59;;;;;;;;;;;4.50;75.50;;;;;;5036122;28;20021;-88
2021/12/06 07:41:28;;;;;;;183.40;62.03;;;4.50;75.70;;;;;;5019381;28;19916;-89
2021/12/06 07:43:54;;;;;;;203.77;67.33;;;4.50;75.40;;;;;;5035912;28;20037;-86
2021/12/06 07:46:20;;;;;;;200.43;69.80;;;4.50;75.60;;;;;;5035429;28;20025;-87
2021/12/06 07:48:52;;;;;;;233.93;73.63;;;4.40;75.70;;;;;;5036079;28;20048;-87
2021/12/06 07:51:25;;;;;;;203.90;70.90;;;4.50;75.80;;;;;;5035702;28;20033;-87
2021/12/06 07:53:51;;;;;;;204.57;70.47;;;4.60;75.80;;;;;;5036139;28;20359;-88
2021/12/06 07:56:18;;;;;;;213.07;71.07;;;4.60;75.80;;;;;;5035593;28;20060;-87
2021/12/06 07:58:44;;;;;;;213.73;68.67;;;4.60;75.80;;;;;;5035708;28;20040;-88
2021/12/06 08:01:10;;;;;;;225.93;73.32;;;4.70;75.80;;;;;;5037134;28;20394;-87
2021/12/06 08:03:37;;;;;;;212.10;74.22;;;4.70;75.70;;;;;;5024448;28;20470;-84
2021/12/06 08:06:03;;;;;;;215.87;74.10;;;4.70;75.70;;;;;;5028018;28;20052;-82
2021/12/06 08:08:31;;;;;;;257.37;82.13;;;4.70;75.70;;;;;;5035775;28;20026;-82
2021/12/06 08:11:04;;;;;;;229.67;80.43;;;4.80;75.70;;;;;;5027131;28;20048;-82
2021/12/06 08:13:33;;;;;;;250.63;83.33;;;4.80;75.70;;;;;;5034666;28;20037;-83
2021/12/06 08:16:08;;;;;;;229.67;77.07;;;4.80;75.60;;;;;;5036234;28;20470;-83
2021/12/06 08:18:34;;;;;;;216.20;74.33;;;4.80;75.70;;;;;;5034960;28;20060;-84
2021/12/06 08:21:02;;;;;;;219.25;74.90;;;4.80;75.60;;;;;;5034716;28;20022;-83
2021/12/06 08:23:28;;;;;;;210.47;70.63;;;4.80;75.60;;;;;;5034653;28;20025;-82
2021/12/06 08:25:55;;;;;;;206.40;74.77;;;4.80;75.50;;;;;;5034833;28;20025;-83
2021/12/06 08:28:23;;;;;;;;;;;4.90;75.60;;;;;;5036898;28;20049;-82
2021/12/06 08:30:50;;;;;;;199.90;65.97;;;4.90;75.60;;;;;;5035070;28;19916;-82
2021/12/06 08:33:16;;;;;;;200.23;72.03;;;5.00;75.20;;;;;;5034924;28;20120;-83
2021/12/06 08:35:48;;;;;;;224.25;86.18;;;5.00;75.30;;;;;;5034387;28;20099;-83
2021/12/06 08:38:17;;;;;;;231.37;81.57;;;4.90;75.40;;;;;;5034484;28;20037;-82
2021/12/06 08:40:44;;;;;;;181.67;65.70;;;4.90;75.50;;;;;;5034903;28;20386;-82
2021/12/06 08:43:16;;;;;;;196.63;64.10;;;4.90;75.60;;;;;;5034754;28;20017;-83
2021/12/06 08:45:59;;;;;;;188.60;62.20;;;5.00;75.60;;;;;;5036281;28;20014;-82
2021/12/06 08:48:28;;;;;;;196.73;67.73;;;5.00;75.60;;;;;;5034369;28;20018;-83
2021/12/06 08:50:57;;;;;;;199.50;71.23;;;5.00;75.60;;;;;;5034435;28;20459;-83
2021/12/06 08:53:23;;;;;;;197.07;67.97;;;5.00;75.60;;;;;;5034277;28;20542;-83
2021/12/06 08:55:50;;;;;;;188.93;64.18;;;5.10;75.60;;;;;;5034158;28;20105;-83
2021/12/06 08:58:16;;;;;;;199.40;64.47;;;5.10;75.60;;;;;;5035774;28;20053;-84
2021/12/06 09:00:42;;;;;;;186.33;67.20;;;5.00;75.60;;;;;;5035443;28;20025;-83
2021/12/06 09:03:12;;;;;;;182.20;63.42;;;5.10;75.70;;;;;;5034208;28;20393;-83
2021/12/06 09:05:42;;;;;;;179.80;64.63;;;5.10;75.70;;;;;;5034117;28;20097;-83
2021/12/06 09:08:08;;;;;;;151.63;56.53;;;5.10;75.70;;;;;;5034090;28;20033;-83
2021/12/06 09:10:37;;;;;;;162.57;57.77;;;5.10;75.70;;;;;;5035976;28;20104;-82
2021/12/06 09:13:05;;;;;;;172.80;60.23;;;5.10;75.70;;;;;;5033559;28;20075;-83
2021/12/06 09:15:31;;;;;;;188.80;61.93;;;5.10;75.80;;;;;;5033907;28;20032;-83
2021/12/06 09:17:57;;;;;;;171.30;61.87;;;5.10;75.80;;;;;;5034740;28;20028;-85
2021/12/06 09:20:28;;;;;;;160.83;59.03;;;5.20;75.80;;;;;;5034242;28;20112;-83
2021/12/06 09:22:54;;;;;;;152.13;54.33;;;5.20;75.70;;;;;;5033744;28;20497;-83
2021/12/06 09:25:20;;;;;;;140.97;55.80;;;5.30;75.60;;;;;;5033237;28;20036;-83
2021/12/06 09:27:46;;;;;;;137.05;52.22;;;5.30;75.60;;;;;;5033277;28;20022;-83
2021/12/06 09:30:17;;;;;;;89.82;35.38;;;5.40;75.60;;;;;;5033077;28;20029;-82
2021/12/06 09:32:42;;;;;;;96.30;40.10;;;5.50;75.50;;;;;;5032942;28;20022;-83
2021/12/06 09:35:13;;;;;;;99.13;40.20;;;5.60;75.40;;;;;;5033390;28;20033;-83
2021/12/06 09:37:39;;;;;;;94.47;41.13;;;5.60;75.30;;;;;;5034257;28;20105;-83
2021/12/06 09:40:07;;;;;;;84.83;35.50;;;5.70;75.20;;;;;;5030402;28;20026;-83
2021/12/06 09:42:36;;;;;;;97.20;40.40;;;5.80;75.10;;;;;;5017882;28;20017;-82
2021/12/06 09:45:05;;;;;;;77.87;32.50;;;5.80;75.10;;;;;;5033338;28;20061;-83
2021/12/06 09:47:34;;;;;;;63.17;27.37;;;5.80;75.00;;;;;;5032541;28;20033;-84
2021/12/06 09:50:00;;;;;;;61.10;26.13;;;5.90;75.00;;;;;;5033077;28;20040;-84
2021/12/06 09:52:26;;;;;;;68.32;26.10;;;5.90;74.90;;;;;;5032489;28;20474;-84
2021/12/06 09:54:51;;;;;;;;;;;6.00;74.80;;;;;;5032909;28;20052;-84
2021/12/06 09:57:17;;;;;;;50.07;24.43;;;5.90;74.80;;;;;;5032791;28;19913;-83
2021/12/06 09:59:44;;;;;;;64.22;25.98;;;6.10;74.50;;;;;;5031280;28;20386;-82
2021/12/06 10:02:16;;;;;;;55.87;25.57;;;6.00;74.40;;;;;;5032438;28;20034;-82
2021/12/06 10:04:48;;;;;;;46.77;21.60;;;6.00;74.40;;;;;;5032504;28;20029;-82
2021/12/06 10:07:15;;;;;;;59.63;26.50;;;6.00;74.40;;;;;;5032644;28;20030;-83
2021/12/06 10:09:42;;;;;;;70.10;29.87;;;6.00;74.40;;;;;;5033038;28;20029;-83
2021/12/06 10:12:09;;;;;;;47.07;22.53;;;6.00;74.30;;;;;;5033294;28;20029;-82
2021/12/06 10:14:37;;;;;;;48.73;21.23;;;6.00;74.20;;;;;;5032873;28;20033;-83
2021/12/06 10:17:05;;;;;;;43.73;20.23;;;6.00;74.10;;;;;;5003156;28;20033;-83
2021/12/06 10:19:31;;;;;;;40.27;19.77;;;6.00;74.10;;;;;;5032493;28;20104;-83
2021/12/06 10:21:57;;;;;;;63.43;29.13;;;6.00;74.10;;;;;;5032280;28;20041;-83
2021/12/06 10:24:24;;;;;;;;;;;6.00;74.00;;;;;;5032951;28;20115;-83
2021/12/06 10:26:51;;;;;;;45.83;19.50;;;6.10;74.10;;;;;;5032630;28;19961;-82
2021/12/06 10:29:21;;;;;;;55.73;22.23;;;6.10;73.80;;;;;;5028539;28;20064;-82
2021/12/06 10:31:50;;;;;;;47.67;20.67;;;6.10;73.70;;;;;;5025773;28;20022;-83
2021/12/06 10:34:24;;;;;;;39.90;18.63;;;6.10;73.70;;;;;;5020279;28;20025;-84
2021/12/06 10:36:50;;;;;;;40.53;18.23;;;6.10;73.70;;;;;;5027582;28;20080;-83
2021/12/06 10:39:16;;;;;;;35.17;17.17;;;6.10;73.70;;;;;;5032001;28;20091;-83
2021/12/06 10:41:41;;;;;;;;;;;6.10;73.70;;;;;;5032799;28;20022;-81
2021/12/06 10:44:11;;;;;;;32.80;15.67;;;6.10;73.70;;;;;;5031661;28;19909;-82
2021/12/06 10:46:40;;;;;;;35.63;16.80;;;6.10;73.40;;;;;;5031908;28;20130;-83
2021/12/06 10:49:11;;;;;;;34.33;16.57;;;6.10;73.50;;;;;;5031612;28;20029;-83
2021/12/06 10:51:36;;;;;;;38.50;18.63;;;6.00;73.60;;;;;;5032163;28;20482;-83
2021/12/06 10:54:12;;;;;;;40.45;17.33;;;6.00;73.70;;;;;;5031674;28;20076;-83
2021/12/06 10:56:46;;;;;;;41.25;17.23;;;6.10;73.80;;;;;;5031803;28;20087;-83
2021/12/06 10:59:24;;;;;;;33.07;15.77;;;6.00;73.80;;;;;;5031890;28;20447;-83
2021/12/06 11:01:52;;;;;;;30.40;15.03;;;6.00;73.70;;;;;;5033225;28;20490;-83
2021/12/06 11:04:21;;;;;;;27.47;14.60;;;6.00;73.70;;;;;;5032082;28;20128;-82
2021/12/06 11:06:50;;;;;;;30.37;15.43;;;6.10;73.60;;;;;;5037538;28;20025;-83
2021/12/06 11:09:26;;;;;;;30.50;14.57;;;6.00;73.60;;;;;;5035532;28;20029;-83
2021/12/06 11:11:55;;;;;;;32.20;15.57;;;6.00;73.60;;;;;;5035878;28;20057;-83
2021/12/06 11:14:24;;;;;;;32.67;15.63;;;6.10;73.60;;;;;;5035627;28;20076;-83
2021/12/06 11:17:03;;;;;;;44.10;21.67;;;6.10;73.60;;;;;;5035884;28;20029;-83
2021/12/06 11:19:31;;;;;;;104.67;43.60;;;6.00;73.50;;;;;;5035782;28;20535;-82
2021/12/06 11:22:11;;;;;;;44.93;20.90;;;6.00;73.40;;;;;;5035923;28;20164;-83
2021/12/06 11:24:43;;;;;;;25.50;13.20;;;5.90;73.50;;;;;;5022395;28;20026;-83
2021/12/06 11:27:20;;;;;;;28.00;12.23;;;5.90;73.50;;;;;;5035487;28;20134;-82
2021/12/06 11:29:49;;;;;;;32.53;15.23;;;5.80;73.50;;;;;;5035626;28;20120;-82
2021/12/06 11:32:14;;;;;;;34.10;14.40;;;5.80;73.60;;;;;;5035627;28;20044;-82
2021/12/06 11:34:48;;;;;;;28.67;14.80;;;5.70;73.70;;;;;;5035044;28;20037;-82
2021/12/06 11:37:24;;;;;;;25.20;13.70;;;5.70;73.80;;;;;;5024336;28;20037;-83
2021/12/06 11:40:12;;;;;;;26.75;11.82;;;5.70;73.80;;;;;;5027570;28;20034;-83
2021/12/06 11:43:03;;;;;;;24.23;12.43;;;5.70;73.70;;;;;;5035260;28;20088;-83
2021/12/06 11:45:34;;;;;;;26.97;13.93;;;5.70;73.60;;;;;;5035317;28;20029;-84
2021/12/06 11:48:01;;;;;;;27.63;12.00;;;5.70;73.60;;;;;;5035209;28;20128;-82
2021/12/06 11:50:27;;;;;;;27.57;12.27;;;5.80;73.50;;;;;;5035597;28;20123;-83
2021/12/06 11:56:48;;;;;;;26.90;12.23;;;5.70;73.50;;;;;;4976324;28;20460;-84
2021/12/06 11:59:16;;;;;;;29.40;13.33;;;5.80;73.30;;;;;;4975396;28;20043;-84
2021/12/06 12:01:46;;;;;;;31.13;15.00;;;5.80;73.20;;;;;;4975459;28;20026;-83
2021/12/06 12:04:15;;;;;;;29.20;14.47;;;5.70;73.20;;;;;;5008095;28;20131;-83
2021/12/06 12:07:00;;;;;;;31.10;16.07;;;5.70;73.20;;;;;;5035534;28;20044;-83
2021/12/06 12:09:33;;;;;;;35.10;16.60;;;5.60;73.30;;;;;;5035226;28;20021;-83
2021/12/06 12:12:11;;;;;;;37.30;17.37;;;5.60;73.30;;;;;;5003836;28;20057;-84
2021/12/06 12:14:38;;;;;;;38.77;18.10;;;5.50;73.40;;;;;;5034600;28;20075;-83
2021/12/06 12:17:15;;;;;;;40.13;18.03;;;5.60;73.40;;;;;;5034280;28;20116;-83
2021/12/06 12:19:42;;;;;;;37.33;17.30;;;5.60;73.50;;;;;;5034664;28;20025;-83
2021/12/06 12:22:09;;;;;;;34.93;16.63;;;5.50;73.50;;;;;;5034859;28;20029;-82
2021/12/06 12:24:39;;;;;;;34.23;16.37;;;5.60;73.50;;;;;;5034797;28;20033;-83
2021/12/06 12:27:55;;;;;;;34.50;17.07;;;5.50;73.50;;;;;;5034666;28;20440;-84
2021/12/06 12:29:59;;;;;;;37.30;17.27;;;5.60;73.60;;;;;;5030409;28;20064;-83
2021/12/06 12:32:25;;;;;;;35.27;16.37;;;5.60;73.50;;;;;;5034401;28;20018;-84
2021/12/06 12:34:54;;;;;;;35.63;15.83;;;5.60;73.50;;;;;;5034868;28;20501;-82
2021/12/06 12:37:22;;;;;;;35.70;17.17;;;5.60;73.40;;;;;;5034716;28;20437;-83
2021/12/06 12:40:08;;;;;;;32.37;17.13;;;5.60;73.40;;;;;;5034888;28;20482;-82
2021/12/06 12:42:34;;;;;;;33.35;16.17;;;5.70;73.50;;;;;;5034665;28;20718;-83
2021/12/06 12:45:00;;;;;;;;;;;5.70;73.30;;;;;;5035143;28;20038;-83
2021/12/06 12:47:31;;;;;;;33.17;15.60;;;5.70;73.30;;;;;;5034200;28;19905;-81
2021/12/06 12:50:01;;;;;;;35.53;16.30;;;5.70;73.00;;;;;;5034378;28;20033;-83
2021/12/06 12:52:38;;;;;;;37.43;17.07;;;5.70;73.10;;;;;;5035817;28;20033;-83
2021/12/06 12:55:24;;;;;;;32.53;17.00;;;5.70;73.20;;;;;;5033990;28;20541;-83
2021/12/06 12:58:16;;;;;;;34.10;17.93;;;5.60;73.20;;;;;;5034438;28;20032;-83
2021/12/06 13:00:57;;;;;;;34.80;16.30;;;5.70;73.20;;;;;;5034479;28;20155;-83
2021/12/06 13:03:41;;;;;;;38.30;17.93;;;5.80;73.10;;;;;;5004245;28;20010;-83
2021/12/06 13:06:27;;;;;;;34.03;17.20;;;5.80;73.00;;;;;;5034824;28;20475;-81
2021/12/06 13:09:16;;;;;;;35.83;18.90;;;5.70;73.10;;;;;;5034522;28;20117;-83